createdAt,value
2017-09-26T00:00:15.934Z,61.7
2017-09-26T00:01:18.330Z,61.7
2017-09-26T00:02:20.716Z,61.7
2017-09-26T00:03:23.440Z,61.7
2017-09-26T00:04:25.839Z,61.7
2017-09-26T00:05:28.250Z,61.6
2017-09-26T00:06:30.637Z,61.6
2017-09-26T00:07:33.038Z,61.7
2017-09-26T00:08:35.438Z,61.7
2017-09-26T00:09:37.833Z,61.7
2017-09-26T00:10:40.231Z,61.7
2017-09-26T00:11:42.632Z,61.8
2017-09-26T00:12:45.019Z,61.7
2017-09-26T00:13:47.422Z,61.7
2017-09-26T00:14:50.146Z,61.7
2017-09-26T00:15:52.540Z,61.7
2017-09-26T00:16:54.931Z,61.7
2017-09-26T00:17:57.326Z,61.8
2017-09-26T00:18:59.718Z,61.8
2017-09-26T00:20:02.119Z,61.7
2017-09-26T00:21:04.513Z,61.7
2017-09-26T00:22:06.921Z,61.7
2017-09-26T00:23:09.332Z,61.8
2017-09-26T00:24:11.724Z,61.8
2017-09-26T00:25:14.126Z,61.8
2017-09-26T00:26:16.535Z,61.8
2017-09-26T00:27:18.941Z,61.8
2017-09-26T00:28:21.688Z,61.9
2017-09-26T00:29:24.125Z,61.9
2017-09-26T00:30:26.492Z,61.8
2017-09-26T00:31:28.905Z,61.8
2017-09-26T00:32:31.311Z,61.7
2017-09-26T00:33:33.716Z,61.8
2017-09-26T00:34:36.119Z,61.7
2017-09-26T00:35:38.882Z,61.8
2017-09-26T00:36:41.276Z,61.8
2017-09-26T00:37:43.682Z,61.9
2017-09-26T00:38:46.439Z,62
2017-09-26T00:39:48.843Z,62
2017-09-26T00:40:51.244Z,62.1
2017-09-26T00:41:53.641Z,62
2017-09-26T00:42:56.040Z,62
2017-09-26T00:43:58.436Z,61.9
2017-09-26T00:45:00.833Z,61.9
2017-09-26T00:46:03.557Z,61.8
2017-09-26T00:47:05.951Z,61.8
2017-09-26T00:48:08.357Z,61.9
2017-09-26T00:49:10.759Z,61.9
2017-09-26T00:50:13.159Z,61.8
2017-09-26T00:51:15.558Z,61.9
2017-09-26T00:52:17.960Z,61.8
2017-09-26T00:53:20.358Z,61.8
2017-09-26T00:54:22.756Z,62
2017-09-26T00:55:25.148Z,61.8
2017-09-26T00:56:27.546Z,61.9
2017-09-26T00:57:29.942Z,61.8
2017-09-26T00:58:32.334Z,61.8
2017-09-26T00:59:34.728Z,61.8
2017-09-26T01:00:37.126Z,61.9
2017-09-26T01:01:39.550Z,61.9
2017-09-26T01:02:41.922Z,61.9
2017-09-26T01:03:44.324Z,61.8
2017-09-26T01:04:47.060Z,61.9
2017-09-26T01:05:49.455Z,61.8
2017-09-26T01:06:51.856Z,61.9
2017-09-26T01:07:54.588Z,61.9
2017-09-26T01:08:56.983Z,61.9
2017-09-26T01:09:59.387Z,62
2017-09-26T01:11:01.781Z,62
2017-09-26T01:12:04.171Z,62
2017-09-26T01:13:06.565Z,62.1
2017-09-26T01:14:08.961Z,62
2017-09-26T01:15:11.359Z,61.9
2017-09-26T01:16:14.089Z,61.9
2017-09-26T01:17:16.480Z,61.9
2017-09-26T01:18:18.876Z,62.1
2017-09-26T01:19:21.618Z,62
2017-09-26T01:20:24.014Z,62
2017-09-26T01:21:26.750Z,62.1
2017-09-26T01:22:29.152Z,62.1
2017-09-26T01:23:31.543Z,62.1
2017-09-26T01:24:33.939Z,62
2017-09-26T01:25:36.331Z,62.1
2017-09-26T01:26:39.101Z,62
2017-09-26T01:27:41.843Z,62.1
2017-09-26T01:28:44.577Z,62
2017-09-26T01:29:46.971Z,62
2017-09-26T01:30:49.371Z,62.1
2017-09-26T01:31:52.128Z,62.2
2017-09-26T01:32:54.525Z,62.1
2017-09-26T01:33:56.921Z,62.2
2017-09-26T01:34:59.312Z,62.2
2017-09-26T01:36:01.699Z,62.2
2017-09-26T01:37:04.100Z,62.2
2017-09-26T01:38:06.842Z,62.2
2017-09-26T01:39:09.575Z,62.2
2017-09-26T01:40:11.965Z,62.2
2017-09-26T01:41:14.377Z,62.2
2017-09-26T01:42:16.772Z,62.2
2017-09-26T01:43:19.180Z,62.2
2017-09-26T01:44:21.579Z,62.1
2017-09-26T01:45:24.318Z,62.2
2017-09-26T01:46:26.711Z,62.2
2017-09-26T01:47:29.109Z,62.2
2017-09-26T01:48:31.501Z,62.1
2017-09-26T01:49:34.243Z,62.2
2017-09-26T01:50:36.638Z,62.2
2017-09-26T01:51:39.035Z,62.2
2017-09-26T01:52:41.433Z,62.3
2017-09-26T01:53:43.833Z,62.3
2017-09-26T01:54:46.215Z,62.3
2017-09-26T01:55:48.612Z,62.3
2017-09-26T01:56:51.014Z,62.3
2017-09-26T01:57:54.093Z,62.3
2017-09-26T01:58:56.861Z,62.4
2017-09-26T01:59:59.253Z,62.3
2017-09-26T02:01:01.646Z,62.4
2017-09-26T02:02:04.406Z,62.3
2017-09-26T02:03:06.799Z,62.3
2017-09-26T02:04:09.188Z,62.4
2017-09-26T02:05:11.595Z,62.3
2017-09-26T02:06:13.985Z,62.4
2017-09-26T02:07:16.379Z,62.3
2017-09-26T02:08:18.779Z,62.3
2017-09-26T02:09:21.179Z,62.2
2017-09-26T02:10:23.580Z,62.3
2017-09-26T02:11:26.309Z,62.3
2017-09-26T02:12:29.050Z,62.3
2017-09-26T02:13:31.443Z,62.2
2017-09-26T02:14:33.844Z,62.3
2017-09-26T02:15:36.238Z,62.3
2017-09-26T02:16:38.635Z,62.4
2017-09-26T02:17:41.032Z,62.3
2017-09-26T02:18:43.433Z,62.3
2017-09-26T02:19:45.829Z,62.4
2017-09-26T02:20:48.225Z,62.3
2017-09-26T02:21:50.614Z,62.2
2017-09-26T02:22:53.014Z,62.3
2017-09-26T02:23:55.771Z,62.3
2017-09-26T02:24:58.172Z,62.4
2017-09-26T02:26:00.901Z,62.3
2017-09-26T02:27:03.641Z,62.3
2017-09-26T02:28:06.030Z,62.3
2017-09-26T02:29:08.436Z,62.3
2017-09-26T02:30:10.832Z,62.3
2017-09-26T02:31:13.222Z,62.3
2017-09-26T02:32:15.957Z,62.3
2017-09-26T02:33:18.356Z,62.3
2017-09-26T02:34:20.747Z,62.5
2017-09-26T02:35:23.139Z,62.5
2017-09-26T02:36:25.545Z,62.4
2017-09-26T02:37:27.940Z,62.5
2017-09-26T02:38:30.342Z,62.5
2017-09-26T02:39:32.740Z,62.5
2017-09-26T02:40:35.506Z,62.4
2017-09-26T02:41:38.204Z,62.4
2017-09-26T02:42:40.602Z,62.5
2017-09-26T02:43:42.995Z,62.5
2017-09-26T02:44:45.387Z,62.6
2017-09-26T02:45:47.780Z,62.5
2017-09-26T02:46:50.520Z,62.6
2017-09-26T02:47:52.917Z,62.5
2017-09-26T02:48:55.316Z,62.5
2017-09-26T02:49:57.704Z,62.5
2017-09-26T02:51:00.099Z,62.5
2017-09-26T02:52:02.500Z,62.5
2017-09-26T02:53:04.903Z,62.5
2017-09-26T02:54:07.646Z,62.6
2017-09-26T02:55:10.046Z,62.6
2017-09-26T02:56:12.437Z,62.6
2017-09-26T02:57:14.833Z,62.5
2017-09-26T02:58:17.603Z,62.6
2017-09-26T02:59:20.003Z,62.5
2017-09-26T03:00:22.390Z,62.5
2017-09-26T03:01:24.795Z,62.6
2017-09-26T03:02:27.531Z,62.7
2017-09-26T03:03:29.920Z,62.7
2017-09-26T03:04:32.318Z,62.7
2017-09-26T03:05:34.719Z,62.7
2017-09-26T03:06:37.110Z,62.7
2017-09-26T03:07:39.505Z,62.7
2017-09-26T03:08:41.911Z,62.7
2017-09-26T03:09:44.307Z,62.6
2017-09-26T03:10:46.695Z,62.6
2017-09-26T03:11:49.101Z,62.6
2017-09-26T03:12:51.850Z,62.6
2017-09-26T03:13:54.592Z,62.8
2017-09-26T03:14:56.989Z,62.8
2017-09-26T03:15:59.385Z,62.8
2017-09-26T03:17:02.114Z,62.8
2017-09-26T03:18:04.523Z,62.8
2017-09-26T03:19:06.914Z,62.8
2017-09-26T03:20:09.304Z,62.8
2017-09-26T03:21:11.703Z,62.8
2017-09-26T03:22:14.100Z,62.8
2017-09-26T03:23:16.498Z,62.9
2017-09-26T03:24:18.901Z,62.9
2017-09-26T03:25:21.289Z,62.9
2017-09-26T03:26:24.027Z,62.8
2017-09-26T03:27:26.422Z,62.8
2017-09-26T03:28:29.155Z,62.7
2017-09-26T03:29:31.550Z,62.7
2017-09-26T03:30:33.945Z,62.7
2017-09-26T03:31:36.334Z,62.8
2017-09-26T03:32:38.739Z,62.8
2017-09-26T03:33:41.144Z,62.8
2017-09-26T03:34:43.533Z,62.7
2017-09-26T03:35:45.927Z,62.8
2017-09-26T03:36:48.332Z,62.8
2017-09-26T03:37:50.725Z,62.8
2017-09-26T03:38:53.121Z,62.9
2017-09-26T03:39:55.523Z,62.8
2017-09-26T03:40:57.915Z,62.9
2017-09-26T03:42:00.676Z,62.9
2017-09-26T03:43:03.074Z,62.9
2017-09-26T03:44:05.460Z,63
2017-09-26T03:45:07.853Z,63
2017-09-26T03:46:10.242Z,62.9
2017-09-26T03:47:12.640Z,63
2017-09-26T03:48:15.037Z,63
2017-09-26T03:49:17.422Z,63
2017-09-26T03:50:19.821Z,63.1
2017-09-26T03:51:22.226Z,63.1
2017-09-26T03:52:24.622Z,63.1
2017-09-26T03:53:27.022Z,63.1
2017-09-26T03:54:29.757Z,63
2017-09-26T03:55:32.152Z,63.1
2017-09-26T03:56:34.551Z,63
2017-09-26T03:57:36.944Z,63
2017-09-26T03:58:39.332Z,63.1
2017-09-26T03:59:42.071Z,63.1
2017-09-26T04:00:44.466Z,63.1
2017-09-26T04:01:46.862Z,63.2
2017-09-26T04:02:49.250Z,63.2
2017-09-26T04:03:51.646Z,63.2
2017-09-26T04:04:54.042Z,63.2
2017-09-26T04:05:56.435Z,63.2
2017-09-26T04:06:59.180Z,63.2
2017-09-26T04:08:01.560Z,63.2
2017-09-26T04:09:03.960Z,63.2
2017-09-26T04:10:06.366Z,63.3
2017-09-26T04:11:08.759Z,63.3
2017-09-26T04:12:11.156Z,63.3
2017-09-26T04:13:13.546Z,63.3
2017-09-26T04:14:15.933Z,63.3
2017-09-26T04:15:18.340Z,63.2
2017-09-26T04:16:21.412Z,63.3
2017-09-26T04:17:23.800Z,63.3
2017-09-26T04:18:26.207Z,63.5
2017-09-26T04:19:29.005Z,63.4
2017-09-26T04:20:31.400Z,63.4
2017-09-26T04:21:33.803Z,63.3
2017-09-26T04:22:36.545Z,63.4
2017-09-26T04:23:39.285Z,63.4
2017-09-26T04:24:41.689Z,63.4
2017-09-26T04:25:44.075Z,63.4
2017-09-26T04:26:46.464Z,63.5
2017-09-26T04:27:49.194Z,63.4
2017-09-26T04:28:51.583Z,63.4
2017-09-26T04:29:53.985Z,63.5
2017-09-26T04:30:56.384Z,63.5
2017-09-26T04:31:59.110Z,63.5
2017-09-26T04:33:01.503Z,63.5
2017-09-26T04:34:03.900Z,63.5
2017-09-26T04:35:06.300Z,63.5
2017-09-26T04:36:08.690Z,63.5
2017-09-26T04:37:11.088Z,63.5
2017-09-26T04:38:13.483Z,63.5
2017-09-26T04:39:16.217Z,63.5
2017-09-26T04:40:18.615Z,63.5
2017-09-26T04:41:21.016Z,63.4
2017-09-26T04:42:23.403Z,63.5
2017-09-26T04:43:25.810Z,63.4
2017-09-26T04:44:28.207Z,63.6
2017-09-26T04:45:30.597Z,63.6
2017-09-26T04:46:32.996Z,63.6
2017-09-26T04:47:35.394Z,63.5
2017-09-26T04:48:37.787Z,63.5
2017-09-26T04:49:40.189Z,63.6
2017-09-26T04:50:42.585Z,63.6
2017-09-26T04:51:44.977Z,63.6
2017-09-26T04:52:47.373Z,63.5
2017-09-26T04:53:49.769Z,63.6
2017-09-26T04:54:52.165Z,63.5
2017-09-26T04:55:54.560Z,63.6
2017-09-26T04:56:56.951Z,63.6
2017-09-26T04:57:59.356Z,63.6
2017-09-26T04:59:01.756Z,63.6
2017-09-26T05:00:04.153Z,63.6
2017-09-26T05:01:06.549Z,63.6
2017-09-26T05:02:08.940Z,63.6
2017-09-26T05:03:11.679Z,63.6
2017-09-26T05:04:14.075Z,63.5
2017-09-26T05:05:16.475Z,63.6
2017-09-26T05:06:18.873Z,63.6
2017-09-26T05:07:21.263Z,63.6
2017-09-26T05:08:23.654Z,63.5
2017-09-26T05:09:26.053Z,63.5
2017-09-26T05:10:28.454Z,63.4
2017-09-26T05:11:31.188Z,63.6
2017-09-26T05:12:33.581Z,63.5
2017-09-26T05:13:35.973Z,63.6
2017-09-26T05:14:38.366Z,63.6
2017-09-26T05:15:40.764Z,63.5
2017-09-26T05:16:43.160Z,63.5
2017-09-26T05:17:45.552Z,63.5
2017-09-26T05:18:47.949Z,63.5
2017-09-26T05:19:50.349Z,63.5
2017-09-26T05:20:52.739Z,63.4
2017-09-26T05:21:55.130Z,63.5
2017-09-26T05:22:57.524Z,63.6
2017-09-26T05:23:59.921Z,63.6
2017-09-26T05:25:02.321Z,63.6
2017-09-26T05:26:05.053Z,63.6
2017-09-26T05:27:07.444Z,63.6
2017-09-26T05:28:09.841Z,63.6
2017-09-26T05:29:12.942Z,63.6
2017-09-26T05:30:15.333Z,63.6
2017-09-26T05:31:17.737Z,63.7
2017-09-26T05:32:20.126Z,63.6
2017-09-26T05:33:22.529Z,63.7
2017-09-26T05:34:25.284Z,63.8
2017-09-26T05:35:27.684Z,63.9
2017-09-26T05:36:30.076Z,63.9
2017-09-26T05:37:32.823Z,63.8
2017-09-26T05:38:35.214Z,63.8
2017-09-26T05:39:37.613Z,63.9
2017-09-26T05:40:40.002Z,63.8
2017-09-26T05:41:42.396Z,63.8
2017-09-26T05:42:44.792Z,63.8
2017-09-26T05:43:47.186Z,63.8
2017-09-26T05:44:49.931Z,63.8
2017-09-26T05:45:52.671Z,63.8
2017-09-26T05:46:55.060Z,63.9
2017-09-26T05:47:57.803Z,64
2017-09-26T05:49:00.536Z,63.9
2017-09-26T05:50:02.930Z,64
2017-09-26T05:51:05.323Z,63.8
2017-09-26T05:52:07.724Z,63.9
2017-09-26T05:53:10.107Z,63.9
2017-09-26T05:54:12.517Z,63.7
2017-09-26T05:55:14.899Z,63.8
2017-09-26T05:56:17.296Z,63.9
2017-09-26T05:57:19.695Z,63.9
2017-09-26T05:58:22.450Z,63.9
2017-09-26T05:59:24.852Z,63.9
2017-09-26T06:00:27.589Z,64
2017-09-26T06:01:29.977Z,63.9
2017-09-26T06:02:32.372Z,63.9
2017-09-26T06:03:34.764Z,63.9
2017-09-26T06:04:37.158Z,64
2017-09-26T06:05:39.559Z,64.1
2017-09-26T06:06:41.960Z,64.1
2017-09-26T06:07:44.353Z,64.1
2017-09-26T06:08:47.092Z,64.1
2017-09-26T06:09:49.483Z,64.1
2017-09-26T06:10:51.886Z,64.1
2017-09-26T06:11:54.632Z,64.2
2017-09-26T06:12:57.167Z,64.1
2017-09-26T06:13:59.558Z,64.1
2017-09-26T06:15:01.984Z,64.1
2017-09-26T06:16:04.374Z,64.1
2017-09-26T06:17:06.764Z,64.2
2017-09-26T06:18:09.162Z,64.2
2017-09-26T06:19:11.555Z,64.2
2017-09-26T06:20:13.946Z,64.2
2017-09-26T06:21:16.694Z,64.4
2017-09-26T06:22:19.090Z,64.4
2017-09-26T06:23:21.480Z,64.4
2017-09-26T06:24:24.558Z,64.4
2017-09-26T06:25:26.949Z,64.4
2017-09-26T06:26:29.349Z,64.5
2017-09-26T06:27:31.750Z,64.6
2017-09-26T06:28:34.137Z,64.5
2017-09-26T06:29:36.547Z,64.4
2017-09-26T06:30:38.951Z,64.5
2017-09-26T06:31:41.346Z,64.5
2017-09-26T06:32:44.074Z,64.5
2017-09-26T06:33:46.476Z,64.5
2017-09-26T06:34:48.908Z,64.6
2017-09-26T06:35:51.292Z,64.6
2017-09-26T06:36:53.732Z,64.7
2017-09-26T06:37:57.120Z,64.7
2017-09-26T06:38:59.516Z,64.7
2017-09-26T06:40:02.251Z,64.7
2017-09-26T06:41:04.648Z,64.7
2017-09-26T06:42:07.045Z,64.8
2017-09-26T06:43:09.450Z,64.7
2017-09-26T06:44:12.188Z,64.7
2017-09-26T06:45:14.567Z,64.8
2017-09-26T06:46:16.974Z,64.8
2017-09-26T06:47:19.373Z,64.7
2017-09-26T06:48:21.772Z,64.7
2017-09-26T06:49:24.176Z,64.8
2017-09-26T06:50:26.573Z,64.9
2017-09-26T06:51:28.970Z,64.9
2017-09-26T06:52:31.375Z,64.9
2017-09-26T06:53:33.765Z,64.9
2017-09-26T06:54:36.178Z,64.9
2017-09-26T06:55:38.559Z,64.9
2017-09-26T06:56:40.948Z,64.9
2017-09-26T06:57:43.348Z,64.8
2017-09-26T06:58:45.753Z,64.8
2017-09-26T06:59:48.144Z,64.9
2017-09-26T07:00:50.538Z,64.8
2017-09-26T07:01:53.173Z,64.8
2017-09-26T07:02:56.022Z,64.8
2017-09-26T07:03:58.416Z,64.8
2017-09-26T07:05:00.806Z,64.8
2017-09-26T07:06:03.201Z,64.7
2017-09-26T07:07:05.596Z,64.9
2017-09-26T07:08:07.995Z,64.9
2017-09-26T07:09:10.382Z,64.9
2017-09-26T07:10:12.778Z,64.8
2017-09-26T07:11:15.524Z,64.7
2017-09-26T07:12:18.598Z,64.8
2017-09-26T07:13:21.016Z,64.8
2017-09-26T07:14:23.410Z,64.8
2017-09-26T07:15:25.808Z,64.8
2017-09-26T07:16:28.227Z,64.8
2017-09-26T07:17:30.671Z,64.7
2017-09-26T07:18:33.074Z,64.8
2017-09-26T07:19:35.482Z,64.8
2017-09-26T07:20:37.892Z,64.7
2017-09-26T07:21:40.307Z,64.8
2017-09-26T07:22:42.698Z,64.7
2017-09-26T07:23:45.168Z,64.7
2017-09-26T07:24:47.811Z,64.7
2017-09-26T07:25:50.566Z,64.7
2017-09-26T07:26:53.021Z,64.7
2017-09-26T07:27:55.804Z,64.7
2017-09-26T07:28:58.224Z,64.7
2017-09-26T07:30:00.618Z,64.7
2017-09-26T07:31:03.013Z,64.6
2017-09-26T07:32:05.470Z,64.5
2017-09-26T07:33:07.983Z,64.5
2017-09-26T07:34:10.377Z,64.6
2017-09-26T07:35:12.786Z,64.5
2017-09-26T07:36:15.201Z,64.5
2017-09-26T07:37:17.996Z,64.4
2017-09-26T07:38:20.404Z,64.4
2017-09-26T07:39:22.804Z,64.4
2017-09-26T07:40:25.253Z,64.5
2017-09-26T07:41:27.677Z,64.5
2017-09-26T07:42:30.170Z,64.4
2017-09-26T07:43:32.912Z,64.5
2017-09-26T07:44:35.314Z,64.5
2017-09-26T07:45:38.171Z,64.5
2017-09-26T07:46:40.564Z,64.5
2017-09-26T07:47:42.958Z,64.6
2017-09-26T07:48:45.408Z,64.6
2017-09-26T07:49:47.862Z,64.7
2017-09-26T07:50:50.249Z,64.6
2017-09-26T07:51:52.645Z,64.6
2017-09-26T07:52:55.043Z,64.6
2017-09-26T07:53:57.488Z,64.6
2017-09-26T07:54:59.928Z,64.5
2017-09-26T07:56:02.319Z,64.6
2017-09-26T07:57:04.713Z,64.6
2017-09-26T07:58:07.446Z,64.5
2017-09-26T07:59:09.880Z,64.6
2017-09-26T08:00:12.317Z,64.5
2017-09-26T08:01:14.716Z,64.5
2017-09-26T08:02:17.153Z,64.4
2017-09-26T08:03:19.550Z,64.5
2017-09-26T08:04:21.986Z,64.4
2017-09-26T08:05:24.382Z,64.4
2017-09-26T08:06:26.788Z,64.3
2017-09-26T08:07:29.181Z,64.3
2017-09-26T08:08:31.572Z,64.3
2017-09-26T08:09:33.970Z,64.4
2017-09-26T08:10:36.366Z,64.4
2017-09-26T08:11:38.761Z,64.4
2017-09-26T08:12:41.501Z,64.5
2017-09-26T08:13:43.894Z,64.4
2017-09-26T08:14:46.289Z,64.5
2017-09-26T08:15:48.685Z,64.4
2017-09-26T08:16:51.074Z,64.4
2017-09-26T08:17:53.474Z,64.5
2017-09-26T08:18:55.881Z,64.4
2017-09-26T08:19:58.268Z,64.4
2017-09-26T08:21:01.008Z,64.3
2017-09-26T08:22:03.408Z,64.1
2017-09-26T08:23:05.801Z,64.3
2017-09-26T08:24:08.197Z,64.2
2017-09-26T08:25:10.589Z,64.3
2017-09-26T08:26:12.980Z,64.2
2017-09-26T08:27:15.737Z,64.1
2017-09-26T08:28:18.128Z,64.1
2017-09-26T08:29:20.521Z,64.1
2017-09-26T08:30:23.260Z,64.1
2017-09-26T08:31:25.640Z,64.1
2017-09-26T08:32:28.045Z,64.1
2017-09-26T08:33:30.454Z,64.1
2017-09-26T08:34:32.866Z,64.1
2017-09-26T08:35:35.272Z,64.1
2017-09-26T08:36:37.677Z,64.1
2017-09-26T08:37:40.081Z,63.9
2017-09-26T08:38:42.484Z,63.9
2017-09-26T08:39:45.249Z,63.8
2017-09-26T08:40:47.989Z,63.7
2017-09-26T08:41:50.392Z,63.9
2017-09-26T08:42:52.823Z,63.9
2017-09-26T08:43:55.231Z,63.7
2017-09-26T08:44:57.655Z,63.9
2017-09-26T08:46:00.054Z,64
2017-09-26T08:47:02.453Z,64.1
2017-09-26T08:48:04.853Z,64.1
2017-09-26T08:49:07.258Z,64.1
2017-09-26T08:50:09.745Z,64.1
2017-09-26T08:51:12.483Z,64
2017-09-26T08:52:14.918Z,63.9
2017-09-26T08:53:17.717Z,63.7
2017-09-26T08:54:20.129Z,63.7
2017-09-26T08:55:22.527Z,63.7
2017-09-26T08:56:24.937Z,63.9
2017-09-26T08:57:27.355Z,64
2017-09-26T08:58:29.820Z,64.1
2017-09-26T08:59:32.254Z,64
2017-09-26T09:00:34.965Z,64
2017-09-26T09:01:37.432Z,63.9
2017-09-26T09:02:39.843Z,63.9
2017-09-26T09:03:42.249Z,63.9
2017-09-26T09:04:44.646Z,64
2017-09-26T09:05:47.046Z,64
2017-09-26T09:06:49.451Z,64.1
2017-09-26T09:07:51.847Z,64.2
2017-09-26T09:08:54.254Z,64.3
2017-09-26T09:09:56.658Z,64.3
2017-09-26T09:10:59.058Z,64.4
2017-09-26T09:12:01.461Z,64.4
2017-09-26T09:13:03.874Z,64.5
2017-09-26T09:14:06.260Z,64.5
2017-09-26T09:15:08.662Z,64.5
2017-09-26T09:16:11.082Z,64.5
2017-09-26T09:17:13.495Z,64.6
2017-09-26T09:18:16.298Z,64.5
2017-09-26T09:19:18.696Z,64.6
2017-09-26T09:20:21.142Z,64.6
2017-09-26T09:21:23.547Z,64.6
2017-09-26T09:22:26.028Z,64.7
2017-09-26T09:23:28.425Z,64.5
2017-09-26T09:24:30.846Z,64.4
2017-09-26T09:25:33.243Z,64.3
2017-09-26T09:26:35.633Z,64.3
2017-09-26T09:27:38.033Z,64.1
2017-09-26T09:28:40.433Z,63.7
2017-09-26T09:29:42.833Z,63.5
2017-09-26T09:30:45.229Z,63.3
2017-09-26T09:31:47.976Z,63.1
2017-09-26T09:32:50.376Z,62.9
2017-09-26T09:33:52.776Z,62.9
2017-09-26T09:34:55.546Z,62.8
2017-09-26T09:35:57.939Z,62.7
2017-09-26T09:37:00.343Z,62.8
2017-09-26T09:38:02.740Z,62.6
2017-09-26T09:39:05.140Z,62.6
2017-09-26T09:40:07.528Z,62.6
2017-09-26T09:41:09.935Z,62.5
2017-09-26T09:42:12.329Z,62.4
2017-09-26T09:43:14.726Z,62.3
2017-09-26T09:44:17.138Z,62.3
2017-09-26T09:45:19.533Z,62.3
2017-09-26T09:46:21.944Z,62.4
2017-09-26T09:47:24.348Z,62.5
2017-09-26T09:48:26.740Z,62.6
2017-09-26T09:49:29.145Z,62.7
2017-09-26T09:50:31.553Z,62.6
2017-09-26T09:51:33.937Z,62.5
2017-09-26T09:52:36.340Z,62.4
2017-09-26T09:53:38.740Z,62.3
2017-09-26T09:54:41.142Z,62.3
2017-09-26T09:55:43.548Z,62.3
2017-09-26T09:56:46.286Z,62.3
2017-09-26T09:57:48.675Z,62.3
2017-09-26T09:58:51.423Z,62.4
2017-09-26T09:59:54.168Z,62.4
2017-09-26T10:00:56.581Z,62.4
2017-09-26T10:01:58.982Z,62.5
2017-09-26T10:03:01.382Z,62.6
2017-09-26T10:04:03.789Z,62.7
2017-09-26T10:05:06.199Z,62.7
2017-09-26T10:06:08.591Z,62.7
2017-09-26T10:07:10.990Z,62.7
2017-09-26T10:08:13.385Z,62.7
2017-09-26T10:09:15.781Z,62.6
2017-09-26T10:10:18.184Z,62.3
2017-09-26T10:11:20.588Z,62.3
2017-09-26T10:12:22.991Z,62.5
2017-09-26T10:13:25.400Z,62.5
2017-09-26T10:14:27.801Z,62.4
2017-09-26T10:15:30.201Z,62.4
2017-09-26T10:16:32.597Z,62.3
2017-09-26T10:17:35.007Z,62.3
2017-09-26T10:18:37.404Z,62.2
2017-09-26T10:19:39.807Z,62.1
2017-09-26T10:20:42.552Z,62.1
2017-09-26T10:21:44.949Z,62.3
2017-09-26T10:22:47.346Z,62.2
2017-09-26T10:23:50.089Z,62.2
2017-09-26T10:24:52.482Z,62.2
2017-09-26T10:25:54.905Z,62.3
2017-09-26T10:26:57.289Z,62.2
2017-09-26T10:27:59.686Z,62.2
2017-09-26T10:29:02.082Z,62.1
2017-09-26T10:30:04.492Z,62.1
2017-09-26T10:31:07.228Z,62
2017-09-26T10:32:09.635Z,62
2017-09-26T10:33:12.032Z,61.9
2017-09-26T10:34:14.771Z,61.7
2017-09-26T10:35:17.174Z,61.6
2017-09-26T10:36:19.582Z,61.5
2017-09-26T10:37:21.984Z,61.7
2017-09-26T10:38:24.378Z,61.6
2017-09-26T10:39:26.778Z,61.7
2017-09-26T10:40:29.193Z,61.8
2017-09-26T10:41:31.933Z,61.7
2017-09-26T10:42:34.342Z,61.7
2017-09-26T10:43:36.729Z,61.6
2017-09-26T10:44:39.131Z,61.4
2017-09-26T10:45:41.532Z,61.3
2017-09-26T10:46:43.943Z,61.2
2017-09-26T10:47:46.338Z,61.1
2017-09-26T10:48:48.746Z,61
2017-09-26T10:49:51.521Z,61
2017-09-26T10:50:53.923Z,61
2017-09-26T10:51:56.316Z,60.8
2017-09-26T10:52:58.710Z,60.6
2017-09-26T10:54:01.104Z,60.3
2017-09-26T10:55:03.529Z,60.2
2017-09-26T10:56:05.930Z,60
2017-09-26T10:57:08.328Z,60
2017-09-26T10:58:11.067Z,60
2017-09-26T10:59:13.472Z,60
2017-09-26T11:00:15.874Z,60.2
2017-09-26T11:01:18.273Z,60
2017-09-26T11:02:20.674Z,60
2017-09-26T11:03:23.086Z,60
2017-09-26T11:04:25.479Z,60
2017-09-26T11:05:27.902Z,59.9
2017-09-26T11:06:30.295Z,59.9
2017-09-26T11:07:32.707Z,60
2017-09-26T11:08:35.111Z,60
2017-09-26T11:09:37.515Z,60
2017-09-26T11:10:40.252Z,60
2017-09-26T11:11:42.661Z,60
2017-09-26T11:12:45.052Z,60
2017-09-26T11:13:47.813Z,59.9
2017-09-26T11:14:50.214Z,59.9
2017-09-26T11:15:52.623Z,59.8
2017-09-26T11:16:55.024Z,59.8
2017-09-26T11:17:57.434Z,59.9
2017-09-26T11:18:59.832Z,59.9
2017-09-26T11:20:02.585Z,59.9
2017-09-26T11:21:05.321Z,59.9
2017-09-26T11:22:07.720Z,60
2017-09-26T11:23:10.118Z,60
2017-09-26T11:24:12.523Z,59.9
2017-09-26T11:25:14.924Z,59.8
2017-09-26T11:26:17.334Z,59.7
2017-09-26T11:27:19.745Z,59.7
2017-09-26T11:28:22.487Z,59.7
2017-09-26T11:29:24.896Z,59.6
2017-09-26T11:30:27.647Z,59.5
2017-09-26T11:31:30.049Z,59.6
2017-09-26T11:32:32.442Z,59.7
2017-09-26T11:33:34.847Z,59.8
2017-09-26T11:34:37.256Z,59.8
2017-09-26T11:35:39.661Z,60
2017-09-26T11:36:42.065Z,60
2017-09-26T11:37:44.459Z,60
2017-09-26T11:38:46.861Z,60
2017-09-26T11:39:49.273Z,59.9
2017-09-26T11:40:51.671Z,60
2017-09-26T11:41:54.072Z,59.9
2017-09-26T11:42:56.470Z,60
2017-09-26T11:43:58.875Z,59.8
2017-09-26T11:45:01.290Z,59.9
2017-09-26T11:46:03.690Z,59.8
2017-09-26T11:47:06.090Z,59.8
2017-09-26T11:48:08.494Z,59.7
2017-09-26T11:49:10.903Z,59.6
2017-09-26T11:50:13.311Z,59.8
2017-09-26T11:51:15.708Z,59.8
2017-09-26T11:52:18.105Z,60
2017-09-26T11:53:20.510Z,59.9
2017-09-26T11:54:23.263Z,59.7
2017-09-26T11:55:25.669Z,59.6
2017-09-26T11:56:28.075Z,59.4
2017-09-26T11:57:30.476Z,59.3
2017-09-26T11:58:32.873Z,59.3
2017-09-26T11:59:35.280Z,59.2
2017-09-26T12:00:37.688Z,59.2
2017-09-26T12:01:40.081Z,59
2017-09-26T12:02:42.490Z,58.9
2017-09-26T12:03:44.909Z,58.9
2017-09-26T12:04:47.304Z,58.5
2017-09-26T12:05:49.716Z,58.3
2017-09-26T12:06:52.117Z,58.3
2017-09-26T12:07:54.518Z,58.3
2017-09-26T12:08:56.926Z,58.4
2017-09-26T12:09:59.327Z,58.5
2017-09-26T12:11:01.713Z,58.6
2017-09-26T12:12:04.102Z,58.4
2017-09-26T12:13:06.497Z,58.4
2017-09-26T12:14:08.877Z,58.3
2017-09-26T12:15:11.264Z,58.1
2017-09-26T12:16:13.658Z,58
2017-09-26T12:17:16.045Z,58
2017-09-26T12:18:18.422Z,58.1
2017-09-26T12:19:20.822Z,58.2
2017-09-26T12:20:23.549Z,58
2017-09-26T12:21:25.929Z,58.1
2017-09-26T12:22:28.317Z,58.2
2017-09-26T12:23:31.041Z,58
2017-09-26T12:24:33.430Z,58
2017-09-26T12:26:20.697Z,58
2017-09-26T12:27:23.133Z,58
2017-09-26T12:28:25.571Z,58.2
2017-09-26T12:29:28.015Z,58.2
2017-09-26T12:30:30.467Z,58.2
2017-09-26T12:31:32.909Z,58
2017-09-26T12:32:35.353Z,58
2017-09-26T12:33:37.798Z,58.1
2017-09-26T12:34:40.246Z,58.2
2017-09-26T12:35:43.056Z,58.4
2017-09-26T12:36:45.513Z,58.4
2017-09-26T12:37:47.954Z,58.4
2017-09-26T12:38:50.406Z,58.4
2017-09-26T12:39:52.867Z,58.4
2017-09-26T12:40:55.330Z,58.4
2017-09-26T12:41:57.797Z,58.5
2017-09-26T12:43:00.600Z,58.5
2017-09-26T12:44:03.054Z,58.8
2017-09-26T12:45:05.523Z,58.9
2017-09-26T12:46:07.977Z,58.8
2017-09-26T12:47:10.438Z,58.5
2017-09-26T12:48:12.906Z,58.4
2017-09-26T12:49:15.358Z,58.1
2017-09-26T12:50:17.822Z,58.1
2017-09-26T12:51:20.283Z,58
2017-09-26T12:52:22.768Z,57.5
2017-09-26T12:53:25.231Z,57
2017-09-26T12:54:27.695Z,56.9
2017-09-26T12:55:30.501Z,56.6
2017-09-26T12:56:32.957Z,56.4
2017-09-26T12:57:35.790Z,56.2
2017-09-26T12:58:38.614Z,56.4
2017-09-26T12:59:41.067Z,56.4
2017-09-26T13:00:43.532Z,56.1
2017-09-26T13:01:45.989Z,56.1
2017-09-26T13:02:48.451Z,56
2017-09-26T13:03:50.909Z,55.9
2017-09-26T13:04:53.380Z,55.9
2017-09-26T13:05:55.824Z,55.6
2017-09-26T13:06:58.266Z,55.4
2017-09-26T13:08:00.703Z,55.4
2017-09-26T13:09:03.502Z,55.5
2017-09-26T13:10:05.953Z,55.6
2017-09-26T13:11:08.442Z,55.6
2017-09-26T13:12:10.895Z,55.6
2017-09-26T13:13:13.338Z,55.6
2017-09-26T13:14:15.781Z,55.6
2017-09-26T13:15:18.223Z,55.7
2017-09-26T13:16:20.668Z,55.7
2017-09-26T13:17:23.115Z,55.6
2017-09-26T13:18:25.574Z,55.5
2017-09-26T13:19:28.341Z,55
2017-09-26T13:20:31.845Z,55.1
2017-09-26T13:21:34.319Z,55.2
2017-09-26T13:22:36.721Z,55.6
2017-09-26T13:23:39.169Z,55.6
2017-09-26T13:24:41.617Z,55.6
2017-09-26T13:25:44.061Z,55.6
2017-09-26T13:26:46.518Z,55.6
2017-09-26T13:27:48.962Z,55.6
2017-09-26T13:28:51.421Z,55.7
2017-09-26T13:29:53.862Z,55.7
2017-09-26T13:30:56.320Z,55.3
2017-09-26T13:31:58.771Z,54.9
2017-09-26T13:33:01.216Z,54.8
2017-09-26T13:34:03.669Z,54.7
2017-09-26T13:35:06.111Z,54.4
2017-09-26T13:36:08.555Z,54.3
2017-09-26T13:37:11.337Z,54.3
2017-09-26T13:38:13.788Z,54.4
2017-09-26T13:39:16.233Z,54.4
2017-09-26T13:40:19.035Z,54.6
2017-09-26T13:41:21.477Z,54.7
2017-09-26T13:42:23.921Z,54.7
2017-09-26T13:43:26.373Z,54.7
2017-09-26T13:44:28.819Z,54.8
2017-09-26T13:45:31.264Z,54.7
2017-09-26T13:46:33.716Z,54.8
2017-09-26T13:47:36.845Z,54.9
2017-09-26T13:48:39.296Z,54.9
2017-09-26T13:49:41.746Z,55
2017-09-26T13:50:44.190Z,55.4
2017-09-26T13:51:46.638Z,55.5
2017-09-26T13:52:49.086Z,55.6
2017-09-26T13:53:51.869Z,55.5
2017-09-26T13:54:54.321Z,55.4
2017-09-26T13:55:56.772Z,55
2017-09-26T13:56:59.214Z,54.8